createdAt,value
2022-09-02T00:03:44.087Z,1.10
2022-09-02T00:08:46.883Z,0.90
2022-09-02T00:13:49.053Z,1.00
2022-09-02T00:18:51.949Z,1.00
2022-09-02T00:24:02.224Z,1.13
2022-09-02T00:29:08.885Z,1.00
2022-09-02T00:34:13.570Z,0.93
2022-09-02T00:39:15.930Z,1.10
2022-09-02T00:44:19.034Z,1.13
2022-09-02T00:49:34.802Z,1.10
2022-09-02T00:54:46.007Z,1.10
2022-09-02T00:59:57.033Z,1.00
2022-09-02T01:05:00.164Z,0.90
2022-09-02T01:10:06.901Z,1.23
2022-09-02T01:15:10.162Z,1.10
2022-09-02T01:20:16.525Z,1.00
2022-09-02T01:25:33.034Z,1.10
2022-09-02T01:30:38.079Z,1.30
2022-09-02T01:35:40.066Z,1.20
2022-09-02T01:40:50.343Z,1.73
2022-09-02T01:45:55.449Z,1.40
2022-09-02T01:51:04.580Z,1.50
2022-09-02T01:56:06.301Z,1.10
2022-09-02T02:01:10.083Z,1.40
2022-09-02T02:06:14.623Z,1.20
2022-09-02T02:11:24.843Z,1.25
2022-09-02T02:16:34.172Z,1.38
2022-09-02T02:21:35.830Z,1.33
2022-09-02T02:26:37.554Z,1.50
2022-09-02T02:31:42.217Z,1.40
2022-09-02T02:36:47.917Z,1.55
2022-09-02T02:41:49.564Z,1.40
2022-09-02T02:46:55.184Z,1.05
2022-09-02T02:52:00.192Z,1.38
2022-09-02T02:57:03.044Z,1.45
2022-09-02T03:02:07.342Z,1.30
2022-09-02T03:07:10.164Z,1.48
2022-09-02T03:12:11.910Z,1.55
2022-09-02T03:17:14.058Z,1.50
2022-09-02T03:22:16.196Z,1.40
2022-09-02T03:27:17.940Z,1.60
2022-09-02T03:32:19.540Z,1.65
2022-09-02T03:37:25.633Z,1.80
2022-09-02T03:42:31.315Z,1.55
2022-09-02T03:47:33.779Z,1.73
2022-09-02T03:52:37.419Z,1.33
2022-09-02T03:57:39.098Z,1.77
2022-09-02T04:02:42.162Z,1.58
2022-09-02T04:07:47.184Z,1.58
2022-09-02T04:12:51.202Z,2.10
2022-09-02T04:17:53.147Z,1.63
2022-09-02T04:22:56.683Z,1.58
2022-09-02T04:27:59.701Z,1.60
2022-09-02T04:33:01.827Z,1.60
2022-09-02T04:38:04.984Z,1.50
2022-09-02T04:43:06.676Z,1.73
2022-09-02T04:48:08.527Z,1.83
2022-09-02T04:53:10.950Z,1.77
2022-09-02T04:58:17.281Z,2.10
2022-09-02T05:03:25.126Z,2.30
2022-09-02T05:08:27.661Z,2.33
2022-09-02T05:13:29.609Z,2.50
2022-09-02T05:18:33.820Z,2.35
2022-09-02T05:23:37.175Z,1.92
2022-09-02T05:28:40.507Z,1.67
2022-09-02T05:33:44.613Z,1.85
2022-09-02T05:38:52.880Z,1.90
2022-09-02T05:43:57.662Z,2.10
2022-09-02T05:49:07.640Z,2.10
2022-09-02T05:54:37.947Z,2.10
2022-09-02T05:59:44.253Z,2.20
2022-09-02T06:04:52.068Z,2.22
2022-09-02T06:09:55.243Z,2.53
2022-09-02T06:15:00.661Z,2.78
2022-09-02T06:20:04.678Z,2.60
2022-09-02T06:25:07.659Z,2.58
2022-09-02T06:30:10.459Z,2.72
2022-09-02T06:35:14.011Z,2.58
2022-09-02T06:40:16.621Z,2.50
2022-09-02T06:45:24.306Z,2.20
2022-09-02T06:50:26.995Z,2.30
2022-09-02T06:55:30.755Z,2.53
2022-09-02T07:00:32.765Z,2.30
2022-09-02T07:05:36.969Z,2.65
2022-09-02T07:10:41.174Z,2.30
2022-09-02T07:15:44.326Z,2.40
2022-09-02T07:20:48.093Z,2.22
2022-09-02T07:25:50.303Z,2.35
2022-09-02T07:30:59.481Z,2.20
2022-09-02T07:36:02.146Z,2.63
2022-09-02T07:41:05.400Z,2.30
2022-09-02T07:46:08.610Z,2.10
2022-09-02T07:51:10.985Z,2.30
2022-09-02T07:56:14.828Z,2.20
2022-09-02T08:01:22.672Z,2.00
2022-09-02T08:11:39.767Z,2.00
2022-09-02T08:16:42.037Z,2.05
2022-09-02T08:21:45.172Z,2.05
2022-09-02T08:26:49.295Z,2.45
2022-09-02T08:31:53.532Z,2.03
2022-09-02T08:36:57.252Z,1.73
2022-09-02T08:42:12.488Z,1.65
2022-09-02T08:47:19.747Z,1.80
2022-09-02T08:52:33.959Z,1.80
2022-09-02T08:57:35.796Z,2.15
2022-09-02T09:02:57.834Z,2.25
2022-09-02T09:08:04.837Z,2.20
2022-09-02T09:13:41.526Z,2.10
2022-09-02T09:18:56.995Z,2.05
2022-09-02T09:24:03.043Z,2.25
2022-09-02T09:29:04.849Z,2.33
2022-09-02T09:34:11.484Z,2.38
2022-09-02T09:39:31.746Z,2.90
2022-09-02T09:44:46.896Z,3.10
2022-09-02T09:49:54.540Z,3.47
2022-09-02T09:55:14.213Z,3.60
2022-09-02T10:00:28.899Z,3.97
2022-09-02T10:05:36.786Z,2.70
2022-09-02T10:10:38.677Z,3.30
2022-09-02T10:15:47.471Z,2.53
2022-09-02T10:26:36.139Z,1.48
2022-09-02T10:31:38.105Z,1.40
2022-09-02T10:36:58.741Z,2.10
2022-09-02T10:42:15.984Z,1.40
2022-09-02T10:47:22.672Z,1.40
2022-09-02T10:53:01.945Z,1.70
2022-09-02T10:58:13.144Z,1.27
2022-09-02T11:03:32.943Z,1.30
2022-09-02T11:08:38.521Z,1.42
2022-09-02T11:13:40.027Z,1.10
2022-09-02T11:19:00.314Z,0.80
2022-09-02T11:24:08.891Z,0.90
2022-09-02T11:29:17.187Z,0.70
2022-09-02T11:34:36.820Z,0.90
2022-09-02T11:40:02.297Z,0.90
2022-09-02T11:45:42.154Z,0.68
2022-09-02T11:51:24.446Z,0.93
2022-09-02T11:56:31.086Z,1.08
2022-09-02T12:02:07.777Z,1.00
2022-09-02T12:07:12.827Z,1.10
2022-09-02T12:12:36.284Z,1.00
2022-09-02T12:17:50.099Z,0.85
2022-09-02T12:22:52.226Z,0.93
2022-09-02T12:28:18.075Z,0.85
2022-09-02T12:33:36.809Z,0.70
2022-09-02T12:38:42.774Z,0.80
2022-09-02T12:44:03.568Z,1.23
2022-09-02T12:49:09.508Z,0.90
2022-09-02T12:54:11.651Z,1.10
2022-09-02T12:59:33.012Z,1.00
2022-09-02T13:04:49.859Z,1.00
2022-09-02T13:10:07.350Z,0.93
2022-09-02T13:15:40.703Z,1.02
2022-09-02T13:20:59.162Z,1.15
2022-09-02T13:26:47.763Z,0.90
2022-09-02T13:32:19.397Z,0.80
2022-09-02T13:37:31.749Z,1.00
2022-09-02T13:42:37.360Z,1.00
2022-09-02T13:47:43.933Z,0.70
2022-09-02T13:58:33.719Z,1.20
2022-09-02T14:03:43.925Z,0.93
2022-09-02T14:08:46.672Z,0.90
2022-09-02T14:13:50.219Z,0.88
2022-09-02T14:19:16.345Z,0.88
2022-09-02T14:24:37.463Z,1.10
2022-09-02T14:29:45.060Z,0.90
2022-09-02T14:34:48.466Z,0.82
2022-09-02T14:39:59.908Z,0.90
2022-09-02T14:45:05.653Z,1.13
2022-09-02T14:50:15.225Z,1.00
2022-09-02T14:55:39.259Z,1.20
2022-09-02T15:00:40.833Z,0.98
2022-09-02T15:05:42.643Z,1.23
2022-09-02T15:10:44.985Z,0.95
2022-09-02T15:15:46.734Z,1.10
2022-09-02T15:20:49.151Z,0.80
2022-09-02T15:25:50.943Z,1.08
2022-09-02T15:31:01.067Z,1.17
2022-09-02T15:36:13.176Z,0.90
2022-09-02T15:41:20.849Z,0.90
2022-09-02T15:46:32.315Z,0.77
2022-09-02T15:51:34.963Z,0.80
2022-09-02T15:56:39.271Z,1.10
2022-09-02T16:01:43.743Z,0.90
2022-09-02T16:06:48.094Z,1.10
2022-09-02T16:11:52.640Z,0.80
2022-09-02T16:16:58.267Z,1.00
2022-09-02T16:22:00.097Z,0.85
2022-09-02T16:27:01.923Z,0.70
2022-09-02T16:32:24.537Z,0.90
2022-09-02T16:37:26.940Z,0.88
2022-09-02T16:42:28.434Z,1.00
2022-09-02T16:47:31.700Z,1.08
2022-09-02T16:52:35.046Z,1.00
2022-09-02T16:57:36.570Z,0.90
2022-09-02T17:02:38.154Z,1.20
2022-09-02T17:07:39.718Z,1.00
2022-09-02T17:12:43.227Z,1.58
2022-09-02T17:17:44.918Z,1.00
2022-09-02T17:22:46.395Z,1.20
2022-09-02T17:27:48.516Z,1.00
2022-09-02T17:32:56.176Z,0.93
2022-09-02T17:37:58.168Z,0.90
2022-09-02T17:42:59.684Z,1.00
2022-09-02T17:48:19.032Z,0.95
2022-09-02T17:53:23.568Z,0.95
2022-09-02T17:58:29.301Z,1.35
2022-09-02T18:03:42.204Z,0.88
2022-09-02T18:08:54.562Z,1.17
2022-09-02T18:13:56.068Z,1.10
2022-09-02T18:19:19.570Z,1.10
2022-09-02T18:24:46.208Z,1.10
2022-09-02T18:30:09.416Z,1.17
2022-09-02T18:35:35.738Z,1.00
2022-09-02T18:41:05.278Z,1.38
2022-09-02T18:46:09.261Z,0.85
2022-09-02T18:51:36.014Z,1.10
2022-09-02T18:56:44.564Z,1.10
2022-09-02T19:01:49.622Z,1.10
2022-09-02T19:06:51.166Z,0.93
2022-09-02T19:11:52.954Z,0.80
2022-09-02T19:16:55.814Z,0.85
2022-09-02T19:22:02.625Z,1.20
2022-09-02T19:27:12.157Z,1.00
2022-09-02T19:32:15.099Z,1.00
2022-09-02T19:37:16.906Z,0.80
2022-09-02T19:42:20.511Z,0.93
2022-09-02T19:52:49.345Z,0.95
2022-09-02T19:57:53.147Z,0.90
2022-09-02T20:02:55.657Z,0.90
2022-09-02T20:07:58.037Z,0.88
2022-09-02T20:12:59.795Z,0.73
2022-09-02T20:18:10.391Z,1.05
2022-09-02T20:23:16.993Z,0.75
2022-09-02T20:28:31.052Z,1.17
2022-09-02T20:33:55.539Z,1.00
2022-09-02T20:39:18.149Z,0.90
2022-09-02T20:44:50.927Z,0.95
2022-09-02T20:50:31.692Z,0.90
2022-09-02T20:55:44.739Z,1.00
2022-09-02T21:01:01.046Z,0.90
2022-09-02T21:06:04.156Z,1.20
2022-09-02T21:11:13.808Z,1.42
2022-09-02T21:16:25.248Z,1.08
2022-09-02T21:22:04.756Z,1.00
2022-09-02T21:27:16.439Z,0.88
2022-09-02T21:32:34.702Z,1.13
2022-09-02T21:37:39.819Z,1.00
2022-09-02T21:42:47.115Z,1.70
2022-09-02T21:48:33.751Z,1.15
2022-09-02T21:54:05.991Z,1.02
2022-09-02T21:59:18.820Z,1.10
2022-09-02T22:04:36.819Z,0.90
2022-09-02T22:09:38.364Z,1.00
2022-09-02T22:14:58.979Z,0.90
2022-09-02T22:20:02.752Z,1.02
2022-09-02T22:25:05.242Z,0.90
2022-09-02T22:30:09.015Z,0.73
2022-09-02T22:35:34.038Z,1.00
2022-09-02T22:40:42.309Z,0.90
2022-09-02T22:46:15.116Z,0.82
2022-09-02T22:51:44.662Z,1.17
2022-09-02T22:57:10.566Z,0.90
2022-09-02T23:02:18.017Z,0.90
2022-09-02T23:07:19.571Z,0.93
2022-09-02T23:12:36.795Z,1.10
2022-09-02T23:17:57.869Z,0.80
2022-09-02T23:23:25.414Z,1.00
2022-09-02T23:28:52.327Z,0.93
2022-09-02T23:34:11.594Z,1.00
2022-09-02T23:39:42.995Z,0.90
2022-09-02T23:44:46.111Z,1.20
2022-09-02T23:50:19.852Z,0.95
2022-09-02T23:55:39.930Z,0.82
